sensor_id;sensor_type;location;lat;lon;timestamp;temperature;humidity
66722;SHT31;53633;49.932;10.884;2023-04-08T00:02:08;5.41;70.61
66722;SHT31;53633;49.932;10.884;2023-04-08T00:04:34;5.37;70.97
66722;SHT31;53633;49.932;10.884;2023-04-08T00:07:01;5.28;71.45
66722;SHT31;53633;49.932;10.884;2023-04-08T00:09:28;5.23;71.82
66722;SHT31;53633;49.932;10.884;2023-04-08T00:11:55;5.21;71.55
66722;SHT31;53633;49.932;10.884;2023-04-08T00:14:21;5.24;71.35
66722;SHT31;53633;49.932;10.884;2023-04-08T00:16:49;5.23;71.60
66722;SHT31;53633;49.932;10.884;2023-04-08T00:19:16;5.06;72.13
66722;SHT31;53633;49.932;10.884;2023-04-08T00:21:43;5.01;72.68
66722;SHT31;53633;49.932;10.884;2023-04-08T00:24:09;5.01;72.49
66722;SHT31;53633;49.932;10.884;2023-04-08T00:26:36;5.06;72.81
66722;SHT31;53633;49.932;10.884;2023-04-08T00:29:03;4.89;73.25
66722;SHT31;53633;49.932;10.884;2023-04-08T00:31:29;4.96;73.42
66722;SHT31;53633;49.932;10.884;2023-04-08T00:33:58;4.90;73.02
66722;SHT31;53633;49.932;10.884;2023-04-08T00:36:24;4.83;73.13
66722;SHT31;53633;49.932;10.884;2023-04-08T00:38:51;4.77;73.44
66722;SHT31;53633;49.932;10.884;2023-04-08T00:41:18;4.71;73.85
66722;SHT31;53633;49.932;10.884;2023-04-08T00:43:44;4.66;74.11
66722;SHT31;53633;49.932;10.884;2023-04-08T00:46:11;4.71;74.06
66722;SHT31;53633;49.932;10.884;2023-04-08T00:48:38;4.68;73.90
66722;SHT31;53633;49.932;10.884;2023-04-08T00:51:07;4.86;73.88
66722;SHT31;53633;49.932;10.884;2023-04-08T00:53:33;5.11;73.10
66722;SHT31;53633;49.932;10.884;2023-04-08T00:56:00;5.28;72.68
66722;SHT31;53633;49.932;10.884;2023-04-08T00:58:27;5.20;72.78
66722;SHT31;53633;49.932;10.884;2023-04-08T01:01:03;5.23;72.81
66722;SHT31;53633;49.932;10.884;2023-04-08T01:03:43;5.16;72.83
66722;SHT31;53633;49.932;10.884;2023-04-08T01:06:20;5.11;73.40
66722;SHT31;53633;49.932;10.884;2023-04-08T01:08:49;5.28;72.58
66722;SHT31;53633;49.932;10.884;2023-04-08T01:11:17;5.34;72.33
66722;SHT31;53633;49.932;10.884;2023-04-08T01:13:45;5.56;71.92
66722;SHT31;53633;49.932;10.884;2023-04-08T01:16:15;5.78;71.42
66722;SHT31;53633;49.932;10.884;2023-04-08T01:18:43;5.80;71.31
66722;SHT31;53633;49.932;10.884;2023-04-08T01:21:15;5.83;71.21
66722;SHT31;53633;49.932;10.884;2023-04-08T01:23:49;5.83;70.93
66722;SHT31;53633;49.932;10.884;2023-04-08T01:26:22;5.95;70.46
66722;SHT31;53633;49.932;10.884;2023-04-08T01:28:52;5.86;70.46
66722;SHT31;53633;49.932;10.884;2023-04-08T01:31:20;5.95;70.66
66722;SHT31;53633;49.932;10.884;2023-04-08T01:33:48;6.00;70.04
66722;SHT31;53633;49.932;10.884;2023-04-08T01:36:15;6.02;70.09
66722;SHT31;53633;49.932;10.884;2023-04-08T01:38:43;6.00;69.98
66722;SHT31;53633;49.932;10.884;2023-04-08T01:41:11;6.02;69.97
66722;SHT31;53633;49.932;10.884;2023-04-08T01:43:40;6.03;69.95
66722;SHT31;53633;49.932;10.884;2023-04-08T01:46:09;6.10;69.69
66722;SHT31;53633;49.932;10.884;2023-04-08T01:48:37;6.23;70.02
66722;SHT31;53633;49.932;10.884;2023-04-08T01:51:04;6.13;70.27
66722;SHT31;53633;49.932;10.884;2023-04-08T01:53:30;6.03;70.27
66722;SHT31;53633;49.932;10.884;2023-04-08T01:56:02;6.03;69.76
66722;SHT31;53633;49.932;10.884;2023-04-08T01:58:36;6.00;69.99
66722;SHT31;53633;49.932;10.884;2023-04-08T02:01:05;6.07;70.22
66722;SHT31;53633;49.932;10.884;2023-04-08T02:03:36;6.16;70.76
66722;SHT31;53633;49.932;10.884;2023-04-08T02:06:04;6.24;70.09
66722;SHT31;53633;49.932;10.884;2023-04-08T02:08:32;6.14;70.18
66722;SHT31;53633;49.932;10.884;2023-04-08T02:10:59;6.25;69.78
66722;SHT31;53633;49.932;10.884;2023-04-08T02:13:26;6.16;70.27
66722;SHT31;53633;49.932;10.884;2023-04-08T02:15:56;6.17;70.60
66722;SHT31;53633;49.932;10.884;2023-04-08T02:18:27;5.96;71.46
66722;SHT31;53633;49.932;10.884;2023-04-08T02:20:58;6.04;71.60
66722;SHT31;53633;49.932;10.884;2023-04-08T02:23:29;6.04;71.49
66722;SHT31;53633;49.932;10.884;2023-04-08T02:25:59;6.02;71.78
66722;SHT31;53633;49.932;10.884;2023-04-08T02:28:28;6.10;71.52
66722;SHT31;53633;49.932;10.884;2023-04-08T02:30:56;5.97;71.76
66722;SHT31;53633;49.932;10.884;2023-04-08T02:33:24;5.78;72.34
66722;SHT31;53633;49.932;10.884;2023-04-08T02:35:53;5.58;72.25
66722;SHT31;53633;49.932;10.884;2023-04-08T02:38:21;5.55;73.27
66722;SHT31;53633;49.932;10.884;2023-04-08T02:40:48;5.42;72.25
66722;SHT31;53633;49.932;10.884;2023-04-08T02:43:15;5.48;72.88
66722;SHT31;53633;49.932;10.884;2023-04-08T02:45:43;5.41;72.11
66722;SHT31;53633;49.932;10.884;2023-04-08T02:48:10;5.40;72.43
66722;SHT31;53633;49.932;10.884;2023-04-08T02:50:37;5.34;72.25
66722;SHT31;53633;49.932;10.884;2023-04-08T02:53:05;5.30;72.29
66722;SHT31;53633;49.932;10.884;2023-04-08T02:55:31;5.28;72.41
66722;SHT31;53633;49.932;10.884;2023-04-08T02:57:58;5.27;72.41
66722;SHT31;53633;49.932;10.884;2023-04-08T03:00:25;5.13;72.32
66722;SHT31;53633;49.932;10.884;2023-04-08T03:02:51;5.01;72.72
66722;SHT31;53633;49.932;10.884;2023-04-08T03:05:18;4.90;72.65
66722;SHT31;53633;49.932;10.884;2023-04-08T03:07:45;4.72;72.78
66722;SHT31;53633;49.932;10.884;2023-04-08T03:10:13;4.59;73.17
66722;SHT31;53633;49.932;10.884;2023-04-08T03:12:40;4.48;74.30
66722;SHT31;53633;49.932;10.884;2023-04-08T03:15:07;4.38;74.20
66722;SHT31;53633;49.932;10.884;2023-04-08T03:17:34;4.33;74.94
66722;SHT31;53633;49.932;10.884;2023-04-08T03:20:01;4.28;74.79
66722;SHT31;53633;49.932;10.884;2023-04-08T03:22:27;4.34;74.45
66722;SHT31;53633;49.932;10.884;2023-04-08T03:24:54;4.33;74.19
66722;SHT31;53633;49.932;10.884;2023-04-08T03:27:23;4.27;74.31
66722;SHT31;53633;49.932;10.884;2023-04-08T03:29:49;4.30;74.62
66722;SHT31;53633;49.932;10.884;2023-04-08T03:32:16;4.40;74.74
66722;SHT31;53633;49.932;10.884;2023-04-08T03:34:42;4.49;74.93
66722;SHT31;53633;49.932;10.884;2023-04-08T03:37:09;4.65;74.71
66722;SHT31;53633;49.932;10.884;2023-04-08T03:39:37;4.82;74.53
66722;SHT31;53633;49.932;10.884;2023-04-08T03:42:03;4.79;74.42
66722;SHT31;53633;49.932;10.884;2023-04-08T03:44:31;4.87;74.86
66722;SHT31;53633;49.932;10.884;2023-04-08T03:46:58;4.87;74.89
66722;SHT31;53633;49.932;10.884;2023-04-08T03:49:25;4.87;75.01
66722;SHT31;53633;49.932;10.884;2023-04-08T03:51:51;4.87;74.34
66722;SHT31;53633;49.932;10.884;2023-04-08T03:54:18;4.90;74.27
66722;SHT31;53633;49.932;10.884;2023-04-08T03:56:45;4.93;74.12
66722;SHT31;53633;49.932;10.884;2023-04-08T03:59:11;5.04;74.36
66722;SHT31;53633;49.932;10.884;2023-04-08T04:01:39;5.04;74.58
66722;SHT31;53633;49.932;10.884;2023-04-08T04:04:07;5.10;74.66
66722;SHT31;53633;49.932;10.884;2023-04-08T04:06:34;5.21;74.88
66722;SHT31;53633;49.932;10.884;2023-04-08T04:09:01;5.23;74.88
66722;SHT31;53633;49.932;10.884;2023-04-08T04:11:28;5.09;75.02
66722;SHT31;53633;49.932;10.884;2023-04-08T04:13:54;5.04;75.37
66722;SHT31;53633;49.932;10.884;2023-04-08T04:16:21;5.27;74.63
66722;SHT31;53633;49.932;10.884;2023-04-08T04:18:51;5.52;73.63
66722;SHT31;53633;49.932;10.884;2023-04-08T04:21:18;5.47;75.36
66722;SHT31;53633;49.932;10.884;2023-04-08T04:23:45;5.48;75.71
66722;SHT31;53633;49.932;10.884;2023-04-08T04:26:11;5.51;76.16
66722;SHT31;53633;49.932;10.884;2023-04-08T04:28:38;5.38;76.80
66722;SHT31;53633;49.932;10.884;2023-04-08T04:31:05;5.06;78.27
66722;SHT31;53633;49.932;10.884;2023-04-08T04:33:31;5.10;78.11
66722;SHT31;53633;49.932;10.884;2023-04-08T04:35:59;5.32;77.21
66722;SHT31;53633;49.932;10.884;2023-04-08T04:38:26;5.38;77.29
66722;SHT31;53633;49.932;10.884;2023-04-08T04:40:52;5.42;77.54
66722;SHT31;53633;49.932;10.884;2023-04-08T04:43:19;5.54;77.27
66722;SHT31;53633;49.932;10.884;2023-04-08T04:45:46;5.66;76.66
66722;SHT31;53633;49.932;10.884;2023-04-08T04:48:12;5.76;76.44
66722;SHT31;53633;49.932;10.884;2023-04-08T04:50:39;5.75;76.62
66722;SHT31;53633;49.932;10.884;2023-04-08T04:53:07;5.86;76.23
66722;SHT31;53633;49.932;10.884;2023-04-08T04:55:34;5.76;76.60
66722;SHT31;53633;49.932;10.884;2023-04-08T04:58:03;5.63;78.16
66722;SHT31;53633;49.932;10.884;2023-04-08T05:00:29;5.62;77.96
66722;SHT31;53633;49.932;10.884;2023-04-08T05:02:56;5.78;77.33
66722;SHT31;53633;49.932;10.884;2023-04-08T05:05:23;5.72;77.63
66722;SHT31;53633;49.932;10.884;2023-04-08T05:07:49;5.78;77.80
66722;SHT31;53633;49.932;10.884;2023-04-08T05:10:18;5.70;78.72
66722;SHT31;53633;49.932;10.884;2023-04-08T05:12:44;5.73;78.78
66722;SHT31;53633;49.932;10.884;2023-04-08T05:15:11;5.80;78.29
66722;SHT31;53633;49.932;10.884;2023-04-08T05:17:37;5.76;79.71
66722;SHT31;53633;49.932;10.884;2023-04-08T05:20:05;5.68;79.94
66722;SHT31;53633;49.932;10.884;2023-04-08T05:22:32;5.76;79.53
66722;SHT31;53633;49.932;10.884;2023-04-08T05:24:59;5.76;80.81
66722;SHT31;53633;49.932;10.884;2023-04-08T05:27:27;5.72;80.63
66722;SHT31;53633;49.932;10.884;2023-04-08T05:29:53;5.75;81.12
66722;SHT31;53633;49.932;10.884;2023-04-08T05:32:20;5.76;80.84
66722;SHT31;53633;49.932;10.884;2023-04-08T05:34:47;5.76;81.23
66722;SHT31;53633;49.932;10.884;2023-04-08T05:37:13;5.95;80.24
66722;SHT31;53633;49.932;10.884;2023-04-08T05:39:40;5.73;81.02
66722;SHT31;53633;49.932;10.884;2023-04-08T05:42:07;5.82;81.26
66722;SHT31;53633;49.932;10.884;2023-04-08T05:44:35;5.90;81.09
66722;SHT31;53633;49.932;10.884;2023-04-08T05:47:01;5.85;82.34
66722;SHT31;53633;49.932;10.884;2023-04-08T05:49:28;5.89;81.71
66722;SHT31;53633;49.932;10.884;2023-04-08T05:51:55;5.87;81.66
66722;SHT31;53633;49.932;10.884;2023-04-08T05:54:21;5.82;82.66
66722;SHT31;53633;49.932;10.884;2023-04-08T05:56:48;5.87;82.32
66722;SHT31;53633;49.932;10.884;2023-04-08T05:59:15;6.04;82.18
66722;SHT31;53633;49.932;10.884;2023-04-08T06:01:43;6.07;81.70
66722;SHT31;53633;49.932;10.884;2023-04-08T06:04:09;6.02;82.10
66722;SHT31;53633;49.932;10.884;2023-04-08T06:06:36;5.99;82.43
66722;SHT31;53633;49.932;10.884;2023-04-08T06:09:03;5.97;83.54
66722;SHT31;53633;49.932;10.884;2023-04-08T06:11:30;6.00;83.65
66722;SHT31;53633;49.932;10.884;2023-04-08T06:13:56;6.06;82.98
66722;SHT31;53633;49.932;10.884;2023-04-08T06:16:23;6.02;83.17
66722;SHT31;53633;49.932;10.884;2023-04-08T06:18:51;6.07;83.43
66722;SHT31;53633;49.932;10.884;2023-04-08T06:21:18;6.16;82.93
66722;SHT31;53633;49.932;10.884;2023-04-08T06:23:45;6.25;82.25
66722;SHT31;53633;49.932;10.884;2023-04-08T06:26:11;6.16;82.83
66722;SHT31;53633;49.932;10.884;2023-04-08T06:28:38;6.20;83.26
66722;SHT31;53633;49.932;10.884;2023-04-08T06:31:05;6.27;82.87
66722;SHT31;53633;49.932;10.884;2023-04-08T06:33:31;6.38;81.99
66722;SHT31;53633;49.932;10.884;2023-04-08T06:36:03;6.24;83.10
66722;SHT31;53633;49.932;10.884;2023-04-08T06:38:32;6.46;81.99
66722;SHT31;53633;49.932;10.884;2023-04-08T06:41:01;6.46;81.91
66722;SHT31;53633;49.932;10.884;2023-04-08T06:43:28;6.49;81.84
66722;SHT31;53633;49.932;10.884;2023-04-08T06:45:54;6.42;82.11
66722;SHT31;53633;49.932;10.884;2023-04-08T06:48:21;6.42;82.61
66722;SHT31;53633;49.932;10.884;2023-04-08T06:50:48;6.41;82.56
66722;SHT31;53633;49.932;10.884;2023-04-08T06:53:16;6.56;82.36
66722;SHT31;53633;49.932;10.884;2023-04-08T06:55:42;6.64;82.31
66722;SHT31;53633;49.932;10.884;2023-04-08T06:58:09;6.73;82.30
66722;SHT31;53633;49.932;10.884;2023-04-08T07:00:35;6.79;81.91
66722;SHT31;53633;49.932;10.884;2023-04-08T07:03:02;6.88;82.25
66722;SHT31;53633;49.932;10.884;2023-04-08T07:05:29;7.03;82.03
66722;SHT31;53633;49.932;10.884;2023-04-08T07:07:56;7.14;81.27
66722;SHT31;53633;49.932;10.884;2023-04-08T07:10:24;7.19;81.07
66722;SHT31;53633;49.932;10.884;2023-04-08T07:12:50;7.17;81.56
66722;SHT31;53633;49.932;10.884;2023-04-08T07:15:17;7.20;81.50
66722;SHT31;53633;49.932;10.884;2023-04-08T07:17:43;7.16;80.38
66722;SHT31;53633;49.932;10.884;2023-04-08T07:20:11;6.93;81.60
66722;SHT31;53633;49.932;10.884;2023-04-08T07:22:38;7.04;80.71
66722;SHT31;53633;49.932;10.884;2023-04-08T07:25:05;7.01;81.82
66722;SHT31;53633;49.932;10.884;2023-04-08T07:27:33;7.10;80.80
66722;SHT31;53633;49.932;10.884;2023-04-08T07:30:00;7.14;81.80
66722;SHT31;53633;49.932;10.884;2023-04-08T07:32:27;7.28;80.51
66722;SHT31;53633;49.932;10.884;2023-04-08T07:34:54;7.31;80.94
66722;SHT31;53633;49.932;10.884;2023-04-08T07:37:20;7.37;80.60
66722;SHT31;53633;49.932;10.884;2023-04-08T07:39:47;7.37;81.33
66722;SHT31;53633;49.932;10.884;2023-04-08T07:42:14;7.48;80.38
66722;SHT31;53633;49.932;10.884;2023-04-08T07:44:43;7.54;79.50
66722;SHT31;53633;49.932;10.884;2023-04-08T07:47:10;7.59;79.77
66722;SHT31;53633;49.932;10.884;2023-04-08T07:49:37;7.64;79.40
66722;SHT31;53633;49.932;10.884;2023-04-08T07:52:04;7.62;79.42
66722;SHT31;53633;49.932;10.884;2023-04-08T07:54:30;7.50;79.07
66722;SHT31;53633;49.932;10.884;2023-04-08T07:56:57;7.51;78.92
66722;SHT31;53633;49.932;10.884;2023-04-08T07:59:24;7.55;79.06
66722;SHT31;53633;49.932;10.884;2023-04-08T08:01:52;7.62;79.19
66722;SHT31;53633;49.932;10.884;2023-04-08T08:04:19;7.66;78.73
66722;SHT31;53633;49.932;10.884;2023-04-08T08:06:46;7.66;78.17
66722;SHT31;53633;49.932;10.884;2023-04-08T08:09:13;7.71;78.39
66722;SHT31;53633;49.932;10.884;2023-04-08T08:11:39;7.74;78.59
66722;SHT31;53633;49.932;10.884;2023-04-08T08:14:06;7.74;78.90
66722;SHT31;53633;49.932;10.884;2023-04-08T08:16:33;7.69;78.60
66722;SHT31;53633;49.932;10.884;2023-04-08T08:19:01;7.79;78.85
66722;SHT31;53633;49.932;10.884;2023-04-08T08:21:27;7.86;78.98
66722;SHT31;53633;49.932;10.884;2023-04-08T08:23:54;7.93;78.64
66722;SHT31;53633;49.932;10.884;2023-04-08T08:26:21;8.16;78.50
66722;SHT31;53633;49.932;10.884;2023-04-08T08:28:47;8.20;78.15
66722;SHT31;53633;49.932;10.884;2023-04-08T08:31:14;8.22;78.21
66722;SHT31;53633;49.932;10.884;2023-04-08T08:33:47;8.19;78.30
66722;SHT31;53633;49.932;10.884;2023-04-08T08:36:15;8.04;79.05
66722;SHT31;53633;49.932;10.884;2023-04-08T08:38:42;8.10;78.96
66722;SHT31;53633;49.932;10.884;2023-04-08T08:41:09;8.13;78.07
66722;SHT31;53633;49.932;10.884;2023-04-08T08:43:36;8.10;78.42
66722;SHT31;53633;49.932;10.884;2023-04-08T08:46:03;7.90;80.13
66722;SHT31;53633;49.932;10.884;2023-04-08T08:48:30;8.19;79.25
66722;SHT31;53633;49.932;10.884;2023-04-08T08:50:57;8.31;79.50
66722;SHT31;53633;49.932;10.884;2023-04-08T08:53:29;8.40;77.93
66722;SHT31;53633;49.932;10.884;2023-04-08T08:55:56;8.27;79.08
66722;SHT31;53633;49.932;10.884;2023-04-08T08:58:42;8.41;78.53
66722;SHT31;53633;49.932;10.884;2023-04-08T09:01:31;8.65;77.53
66722;SHT31;53633;49.932;10.884;2023-04-08T09:04:12;8.76;77.58
66722;SHT31;53633;49.932;10.884;2023-04-08T09:06:40;8.86;77.62
66722;SHT31;53633;49.932;10.884;2023-04-08T09:09:08;8.67;79.06
66722;SHT31;53633;49.932;10.884;2023-04-08T09:11:35;8.64;77.58
66722;SHT31;53633;49.932;10.884;2023-04-08T09:14:02;8.64;77.18
66722;SHT31;53633;49.932;10.884;2023-04-08T09:16:29;8.72;76.94
66722;SHT31;53633;49.932;10.884;2023-04-08T09:19:07;8.76;77.28
66722;SHT31;53633;49.932;10.884;2023-04-08T09:21:34;8.88;76.82
66722;SHT31;53633;49.932;10.884;2023-04-08T09:24:00;8.83;77.25
66722;SHT31;53633;49.932;10.884;2023-04-08T09:26:29;9.10;76.24
66722;SHT31;53633;49.932;10.884;2023-04-08T09:29:00;9.57;75.46
66722;SHT31;53633;49.932;10.884;2023-04-08T09:31:44;9.72;74.58
66722;SHT31;53633;49.932;10.884;2023-04-08T09:34:12;9.99;74.10
66722;SHT31;53633;49.932;10.884;2023-04-08T09:36:38;10.23;73.41
66722;SHT31;53633;49.932;10.884;2023-04-08T09:39:05;10.21;73.25
66722;SHT31;53633;49.932;10.884;2023-04-08T09:41:34;10.36;72.75
66722;SHT31;53633;49.932;10.884;2023-04-08T09:44:03;10.36;72.41
66722;SHT31;53633;49.932;10.884;2023-04-08T09:46:34;10.60;71.72
66722;SHT31;53633;49.932;10.884;2023-04-08T09:49:05;10.12;73.07
66722;SHT31;53633;49.932;10.884;2023-04-08T09:51:36;10.19;73.13
66722;SHT31;53633;49.932;10.884;2023-04-08T09:54:11;9.61;73.82
66722;SHT31;53633;49.932;10.884;2023-04-08T09:56:42;9.57;74.20
66722;SHT31;53633;49.932;10.884;2023-04-08T09:59:13;9.45;75.02
66722;SHT31;53633;49.932;10.884;2023-04-08T10:01:44;9.48;74.73
66722;SHT31;53633;49.932;10.884;2023-04-08T10:04:13;9.40;75.28
66722;SHT31;53633;49.932;10.884;2023-04-08T10:06:41;9.33;75.29
66722;SHT31;53633;49.932;10.884;2023-04-08T10:09:08;9.28;75.58
66722;SHT31;53633;49.932;10.884;2023-04-08T10:11:35;9.20;75.61
66722;SHT31;53633;49.932;10.884;2023-04-08T10:14:04;9.23;76.09
66722;SHT31;53633;49.932;10.884;2023-04-08T10:16:30;9.15;76.14
66722;SHT31;53633;49.932;10.884;2023-04-08T10:18:57;9.12;76.13
66722;SHT31;53633;49.932;10.884;2023-04-08T10:21:34;9.00;76.24
66722;SHT31;53633;49.932;10.884;2023-04-08T10:24:01;9.00;76.80
66722;SHT31;53633;49.932;10.884;2023-04-08T10:26:33;8.86;77.04
66722;SHT31;53633;49.932;10.884;2023-04-08T10:29:32;8.90;76.97
66722;SHT31;53633;49.932;10.884;2023-04-08T10:31:59;8.98;77.27
66722;SHT31;53633;49.932;10.884;2023-04-08T10:34:26;9.02;76.84
66722;SHT31;53633;49.932;10.884;2023-04-08T10:36:54;9.06;76.63
66722;SHT31;53633;49.932;10.884;2023-04-08T10:39:21;9.06;76.39
66722;SHT31;53633;49.932;10.884;2023-04-08T10:41:49;9.12;76.20
66722;SHT31;53633;49.932;10.884;2023-04-08T10:44:16;9.28;76.16
66722;SHT31;53633;49.932;10.884;2023-04-08T10:46:44;9.67;75.75
66722;SHT31;53633;49.932;10.884;2023-04-08T10:49:11;9.85;74.89
66722;SHT31;53633;49.932;10.884;2023-04-08T10:51:38;10.03;74.25
66722;SHT31;53633;49.932;10.884;2023-04-08T10:54:05;10.33;74.31
66722;SHT31;53633;49.932;10.884;2023-04-08T10:56:32;10.71;72.55
66722;SHT31;53633;49.932;10.884;2023-04-08T10:58:58;11.02;71.41
66722;SHT31;53633;49.932;10.884;2023-04-08T11:01:25;10.95;71.14
66722;SHT31;53633;49.932;10.884;2023-04-08T11:03:53;10.75;71.86
66722;SHT31;53633;49.932;10.884;2023-04-08T11:06:21;10.51;72.53
66722;SHT31;53633;49.932;10.884;2023-04-08T11:08:47;10.48;72.68
66722;SHT31;53633;49.932;10.884;2023-04-08T11:11:14;10.48;72.66
66722;SHT31;53633;49.932;10.884;2023-04-08T11:13:43;10.50;72.93
66722;SHT31;53633;49.932;10.884;2023-04-08T11:16:19;10.51;72.28
66722;SHT31;53633;49.932;10.884;2023-04-08T11:18:47;10.78;71.99
66722;SHT31;53633;49.932;10.884;2023-04-08T11:21:15;10.99;71.57
66722;SHT31;53633;49.932;10.884;2023-04-08T11:23:42;11.16;71.54
66722;SHT31;53633;49.932;10.884;2023-04-08T11:26:09;11.33;70.75
66722;SHT31;53633;49.932;10.884;2023-04-08T11:28:36;11.59;69.72
66722;SHT31;53633;49.932;10.884;2023-04-08T11:31:04;11.84;69.07
66722;SHT31;53633;49.932;10.884;2023-04-08T11:33:31;12.12;67.84
66722;SHT31;53633;49.932;10.884;2023-04-08T11:36:00;11.98;67.24
66722;SHT31;53633;49.932;10.884;2023-04-08T11:38:29;11.87;67.60
66722;SHT31;53633;49.932;10.884;2023-04-08T11:40:56;11.92;67.32
66722;SHT31;53633;49.932;10.884;2023-04-08T11:43:24;11.85;67.03
66722;SHT31;53633;49.932;10.884;2023-04-08T11:45:51;11.56;67.81
66722;SHT31;53633;49.932;10.884;2023-04-08T11:48:17;11.84;66.92
66722;SHT31;53633;49.932;10.884;2023-04-08T11:50:44;12.24;66.77
66722;SHT31;53633;49.932;10.884;2023-04-08T11:53:18;12.24;66.46
66722;SHT31;53633;49.932;10.884;2023-04-08T11:55:46;11.97;66.76
66722;SHT31;53633;49.932;10.884;2023-04-08T11:58:13;11.69;66.52
66722;SHT31;53633;49.932;10.884;2023-04-08T12:00:40;11.34;67.86
66722;SHT31;53633;49.932;10.884;2023-04-08T12:03:07;11.08;68.47
66722;SHT31;53633;49.932;10.884;2023-04-08T12:05:34;10.64;68.61
66722;SHT31;53633;49.932;10.884;2023-04-08T12:08:00;10.46;69.07
66722;SHT31;53633;49.932;10.884;2023-04-08T12:10:27;10.41;69.25
66722;SHT31;53633;49.932;10.884;2023-04-08T12:12:55;10.03;68.05
66722;SHT31;53633;49.932;10.884;2023-04-08T12:15:22;9.98;69.93
66722;SHT31;53633;49.932;10.884;2023-04-08T12:17:49;10.13;69.12
66722;SHT31;53633;49.932;10.884;2023-04-08T12:20:15;10.30;68.13
66722;SHT31;53633;49.932;10.884;2023-04-08T12:22:42;10.36;67.86
66722;SHT31;53633;49.932;10.884;2023-04-08T12:25:09;10.48;67.15
66722;SHT31;53633;49.932;10.884;2023-04-08T12:27:35;10.40;68.02
66722;SHT31;53633;49.932;10.884;2023-04-08T12:30:05;10.60;68.85
66722;SHT31;53633;49.932;10.884;2023-04-08T12:32:32;10.72;68.41
66722;SHT31;53633;49.932;10.884;2023-04-08T12:34:59;10.88;67.55
66722;SHT31;53633;49.932;10.884;2023-04-08T12:37:25;11.04;66.67
66722;SHT31;53633;49.932;10.884;2023-04-08T12:39:52;11.51;65.96
66722;SHT31;53633;49.932;10.884;2023-04-08T12:42:19;11.63;64.55
66722;SHT31;53633;49.932;10.884;2023-04-08T12:44:45;11.60;64.29
66722;SHT31;53633;49.932;10.884;2023-04-08T12:47:13;11.44;64.77
66722;SHT31;53633;49.932;10.884;2023-04-08T12:49:40;11.32;63.41
66722;SHT31;53633;49.932;10.884;2023-04-08T12:52:10;11.11;65.26
66722;SHT31;53633;49.932;10.884;2023-04-08T12:54:36;10.98;65.37
66722;SHT31;53633;49.932;10.884;2023-04-08T12:57:03;10.82;65.66
66722;SHT31;53633;49.932;10.884;2023-04-08T12:59:30;10.75;65.37
66722;SHT31;53633;49.932;10.884;2023-04-08T13:01:56;10.81;65.37
66722;SHT31;53633;49.932;10.884;2023-04-08T13:04:24;10.75;65.08
66722;SHT31;53633;49.932;10.884;2023-04-08T13:06:51;10.67;65.28
66722;SHT31;53633;49.932;10.884;2023-04-08T13:09:18;10.57;65.35
66722;SHT31;53633;49.932;10.884;2023-04-08T13:11:44;10.72;64.91
66722;SHT31;53633;49.932;10.884;2023-04-08T13:14:11;10.79;64.43
66722;SHT31;53633;49.932;10.884;2023-04-08T13:16:38;10.37;64.99
66722;SHT31;53633;49.932;10.884;2023-04-08T13:19:04;10.37;65.50
66722;SHT31;53633;49.932;10.884;2023-04-08T13:21:32;10.64;65.48
66722;SHT31;53633;49.932;10.884;2023-04-08T13:23:59;10.67;65.51
66722;SHT31;53633;49.932;10.884;2023-04-08T13:26:26;10.51;65.47
66722;SHT31;53633;49.932;10.884;2023-04-08T13:28:52;10.43;65.73
66722;SHT31;53633;49.932;10.884;2023-04-08T13:31:23;10.26;66.25
66722;SHT31;53633;49.932;10.884;2023-04-08T13:33:50;10.20;65.85
66722;SHT31;53633;49.932;10.884;2023-04-08T13:36:17;10.24;66.84
66722;SHT31;53633;49.932;10.884;2023-04-08T13:38:45;10.32;66.77
66722;SHT31;53633;49.932;10.884;2023-04-08T13:41:11;10.41;66.75
66722;SHT31;53633;49.932;10.884;2023-04-08T13:43:38;10.39;66.57
66722;SHT31;53633;49.932;10.884;2023-04-08T13:46:05;10.34;66.46
66722;SHT31;53633;49.932;10.884;2023-04-08T13:48:31;10.46;66.71
66722;SHT31;53633;49.932;10.884;2023-04-08T13:50:58;10.46;66.73
66722;SHT31;53633;49.932;10.884;2023-04-08T13:53:25;10.26;66.95
66722;SHT31;53633;49.932;10.884;2023-04-08T13:55:53;10.14;66.95
66722;SHT31;53633;49.932;10.884;2023-04-08T13:58:19;10.16;67.00
66722;SHT31;53633;49.932;10.884;2023-04-08T14:00:49;10.30;66.76
66722;SHT31;53633;49.932;10.884;2023-04-08T14:03:16;10.33;66.26
66722;SHT31;53633;49.932;10.884;2023-04-08T14:05:43;10.08;67.73
66722;SHT31;53633;49.932;10.884;2023-04-08T14:08:10;10.16;67.25
66722;SHT31;53633;49.932;10.884;2023-04-08T14:10:37;10.20;67.72
66722;SHT31;53633;49.932;10.884;2023-04-08T14:13:05;10.09;68.44
66722;SHT31;53633;49.932;10.884;2023-04-08T14:15:31;9.71;69.13
66722;SHT31;53633;49.932;10.884;2023-04-08T14:17:58;9.70;69.18
66722;SHT31;53633;49.932;10.884;2023-04-08T14:20:25;9.61;69.16
66722;SHT31;53633;49.932;10.884;2023-04-08T14:22:51;9.48;69.51
66722;SHT31;53633;49.932;10.884;2023-04-08T14:25:18;9.58;69.64
66722;SHT31;53633;49.932;10.884;2023-04-08T14:27:45;9.47;70.21
66722;SHT31;53633;49.932;10.884;2023-04-08T14:30:25;9.57;70.32
66722;SHT31;53633;49.932;10.884;2023-04-08T14:32:52;9.41;71.02
66722;SHT31;53633;49.932;10.884;2023-04-08T14:35:19;9.50;70.41
66722;SHT31;53633;49.932;10.884;2023-04-08T14:37:46;9.52;69.51
66722;SHT31;53633;49.932;10.884;2023-04-08T14:40:13;9.45;69.88
66722;SHT31;53633;49.932;10.884;2023-04-08T14:42:39;9.64;69.56
66722;SHT31;53633;49.932;10.884;2023-04-08T14:45:07;9.77;69.17
66722;SHT31;53633;49.932;10.884;2023-04-08T14:47:35;9.83;68.84
66722;SHT31;53633;49.932;10.884;2023-04-08T14:50:02;9.91;68.93
66722;SHT31;53633;49.932;10.884;2023-04-08T14:52:28;9.95;69.05
66722;SHT31;53633;49.932;10.884;2023-04-08T14:54:55;9.88;69.88
66722;SHT31;53633;49.932;10.884;2023-04-08T14:57:22;9.74;70.47
66722;SHT31;53633;49.932;10.884;2023-04-08T14:59:48;9.62;70.93
66722;SHT31;53633;49.932;10.884;2023-04-08T15:02:15;9.55;71.16
66722;SHT31;53633;49.932;10.884;2023-04-08T15:04:43;9.55;70.70
66722;SHT31;53633;49.932;10.884;2023-04-08T15:07:10;9.72;70.80
66722;SHT31;53633;49.932;10.884;2023-04-08T15:09:37;9.81;70.37
66722;SHT31;53633;49.932;10.884;2023-04-08T15:12:04;9.95;70.06
66722;SHT31;53633;49.932;10.884;2023-04-08T15:14:30;10.19;69.43
66722;SHT31;53633;49.932;10.884;2023-04-08T15:16:57;10.40;69.05
66722;SHT31;53633;49.932;10.884;2023-04-08T15:19:23;10.51;68.49
66722;SHT31;53633;49.932;10.884;2023-04-08T15:21:51;10.88;67.89
66722;SHT31;53633;49.932;10.884;2023-04-08T15:24:18;10.81;66.03
66722;SHT31;53633;49.932;10.884;2023-04-08T15:26:45;10.86;66.18
66722;SHT31;53633;49.932;10.884;2023-04-08T15:29:11;10.69;67.60
66722;SHT31;53633;49.932;10.884;2023-04-08T15:31:38;10.60;68.08